Terminal Aerodrome Forecast
Issued by NWS

Home | Current Version | Previous Version | Text Only | Print | Product List | Glossary On
Versions: 1 2 3 4 5 6 7 8 9 10 11 12
000
FTUS45 KREV 260500
TAFTRK
TAF
KTRK 260530Z 2606/2706 18008KT P6SM BKN030 BKN040
     FM260900 VRB04KT P6SM SCT030 BKN045
     FM261100 00000KT 1/2SM FZFG BKN002
     FM261600 VRB04KT P6SM FEW050 SCT200
     FM261900 30008KT P6SM SCT200
     FM270200 VRB03KT P6SM SKC
      AMD NOT SKED 2606/2612=

USA.gov is the U.S. government's official web portal to all federal, state and local government web resources and services.